KMCO/MCO METAR and TAF weather

Enter ICAO airport designator
Station Type Date Time Source
KMCO METAR 2020/03/31 06:53 UTC NOAA

KMCO 310653Z 29004KT 10SM FEW040 FEW250 23/18 A2994 RMK AO2 SLP138 T02280178


Station Type Date Time Source
KMCO Decoded METAR 2020/03/31 06:53 UTC NOAA

ORLANDO INTERNATIONAL AIRPORT , FL, United States (KMCO) 28-25N 81-20W 29M
Mar 31, 2020 - 02:53 AM EDT / 2020.03.31 0653 UTC
Wind: from the WNW (290 degrees) at 5 MPH (4 KT):0
Visibility: 10 mile(s):0
Sky conditions: mostly clear
Temperature: 73.0 F (22.8 C)
Dew Point: 64.0 F (17.8 C)
Relative Humidity: 73%
Pressure (altimeter): 29.94 in. Hg (1013 hPa)
ob: KMCO 310653Z 29004KT 10SM FEW040 FEW250 23/18 A2994 RMK AO2 SLP138 T02280178
cycle: 7

Station Type Date Time Source
KMCO TAF 2020/03/31 06:42 UTC NOAA

TAF KMCO 310539Z 3106/0112 VRB04KT P6SM FEW035 BKN250
FM311400 23011KT P6SM SCT035 BKN250
FM311700 24015G22KT P6SM SCT050 BKN250
FM010200 25011G18KT P6SM VCSH SCT025 BKN040
FM010600 29010KT P6SM SCT020 BKN040

Example: see airport list